DEDRR EDCW-EDDH
Flight info
| Callsign | DEDRR |
|---|---|
| Flight time | 0h 37m |
| Altitude | 3000 |
| Route | VFR |
| Aircraft | P28A/L-S/C |
Departure
| Time | 2026-05-06 17:57 |
|---|---|
| Airport | Wismar Airfield (EDCW) |
Arrival
| Time | 2026-05-06 18:34 |
|---|---|
| Airport | Hamburg Helmut Schmidt Airport (EDDH) |
| Time | Latitude | Longitude | Altitude | Speed | Heading |
|---|---|---|---|---|---|
| 2026-05-06 17:52 | 53.91544 | 11.50057 | 42 ft | 0 kts | 187° |
| 2026-05-06 17:55 | 53.91543 | 11.50057 | 39 ft | 2 kts | 169° |
| 2026-05-06 17:55 | 53.91505 | 11.50092 | 48 ft | 12 kts | 139° |
| 2026-05-06 17:56 | 53.91461 | 11.49969 | 45 ft | 22 kts | 263° |
| 2026-05-06 17:56 | 53.91432 | 11.49708 | 37 ft | 12 kts | 246° |
| 2026-05-06 17:56 | 53.91424 | 11.49775 | 38 ft | 24 kts | 80° |
| 2026-05-06 17:56 | 53.91494 | 11.50355 | 101 ft | 68 kts | 77° |
| 2026-05-06 17:57 | 53.91607 | 11.51198 | 424 ft | 74 kts | 72° |
| 2026-05-06 17:57 | 53.91769 | 11.52031 | 771 ft | 78 kts | 70° |
| 2026-05-06 17:57 | 53.92221 | 11.52600 | 1033 ft | 97 kts | 18° |
| 2026-05-06 17:57 | 53.92918 | 11.52496 | 1354 ft | 107 kts | 345° |
| 2026-05-06 17:58 | 53.93464 | 11.51578 | 1615 ft | 127 kts | 302° |
| 2026-05-06 17:58 | 53.93549 | 11.49970 | 1718 ft | 147 kts | 256° |
| 2026-05-06 17:58 | 53.93207 | 11.48285 | 1849 ft | 153 kts | 246° |
| 2026-05-06 17:58 | 53.92747 | 11.46702 | 2134 ft | 146 kts | 242° |
| 2026-05-06 17:59 | 53.92318 | 11.45110 | 2270 ft | 151 kts | 253° |
| 2026-05-06 17:59 | 53.92177 | 11.43351 | 2388 ft | 152 kts | 270° |
| 2026-05-06 17:59 | 53.92148 | 11.41567 | 2583 ft | 150 kts | 271° |
| 2026-05-06 17:59 | 53.92160 | 11.39787 | 2726 ft | 151 kts | 273° |
| 2026-05-06 18:00 | 53.92151 | 11.38040 | 2976 ft | 146 kts | 270° |
| 2026-05-06 18:00 | 53.92111 | 11.36283 | 3083 ft | 151 kts | 270° |
| 2026-05-06 18:00 | 53.92068 | 11.34494 | 3215 ft | 152 kts | 270° |
| 2026-05-06 18:00 | 53.92044 | 11.32723 | 3338 ft | 151 kts | 271° |
| 2026-05-06 18:01 | 53.92037 | 11.30932 | 3497 ft | 149 kts | 272° |
| 2026-05-06 18:01 | 53.92026 | 11.29194 | 3637 ft | 148 kts | 272° |
| 2026-05-06 18:01 | 53.92011 | 11.27446 | 3796 ft | 147 kts | 272° |
| 2026-05-06 18:01 | 53.92017 | 11.25704 | 3928 ft | 147 kts | 273° |
| 2026-05-06 18:02 | 53.92021 | 11.23978 | 4083 ft | 147 kts | 273° |
| 2026-05-06 18:02 | 53.92006 | 11.22255 | 4257 ft | 145 kts | 271° |
| 2026-05-06 18:02 | 53.91975 | 11.20546 | 4432 ft | 144 kts | 272° |
| 2026-05-06 18:02 | 53.91954 | 11.18842 | 4576 ft | 146 kts | 272° |
| 2026-05-06 18:03 | 53.91942 | 11.17104 | 4674 ft | 150 kts | 273° |
| 2026-05-06 18:03 | 53.91949 | 11.15308 | 4703 ft | 155 kts | 273° |
| 2026-05-06 18:03 | 53.91942 | 11.13423 | 4623 ft | 164 kts | 272° |
| 2026-05-06 18:03 | 53.91931 | 11.11506 | 4545 ft | 163 kts | 272° |
| 2026-05-06 18:04 | 53.91930 | 11.09545 | 4349 ft | 171 kts | 273° |
| 2026-05-06 18:04 | 53.91952 | 11.07521 | 4133 ft | 174 kts | 274° |
| 2026-05-06 18:04 | 53.91977 | 11.05442 | 3875 ft | 177 kts | 274° |
| 2026-05-06 18:04 | 53.91976 | 11.03354 | 3701 ft | 177 kts | 272° |
| 2026-05-06 18:05 | 53.91964 | 11.01236 | 3447 ft | 180 kts | 272° |
| 2026-05-06 18:05 | 53.91983 | 10.99129 | 3300 ft | 176 kts | 275° |
| 2026-05-06 18:05 | 53.92036 | 10.97121 | 3364 ft | 165 kts | 277° |
| 2026-05-06 18:05 | 53.92138 | 10.95148 | 3202 ft | 172 kts | 281° |
| 2026-05-06 18:06 | 53.92310 | 10.93118 | 3037 ft | 173 kts | 284° |
| 2026-05-06 18:06 | 53.92544 | 10.91167 | 3021 ft | 166 kts | 287° |
| 2026-05-06 18:06 | 53.92853 | 10.89272 | 2887 ft | 167 kts | 292° |
| 2026-05-06 18:06 | 53.93258 | 10.87426 | 2766 ft | 167 kts | 297° |
| 2026-05-06 18:07 | 53.93777 | 10.85682 | 2701 ft | 164 kts | 304° |
| 2026-05-06 18:07 | 53.94362 | 10.84030 | 2654 ft | 163 kts | 307° |
| 2026-05-06 18:07 | 53.94982 | 10.82417 | 2573 ft | 163 kts | 310° |
| 2026-05-06 18:07 | 53.95656 | 10.80881 | 2507 ft | 162 kts | 314° |
| 2026-05-06 18:08 | 53.96356 | 10.79382 | 2441 ft | 161 kts | 313° |
| 2026-05-06 18:08 | 53.96712 | 10.77488 | 2214 ft | 177 kts | 277° |
| 2026-05-06 18:08 | 53.96707 | 10.75458 | 2279 ft | 166 kts | 272° |
| 2026-05-06 18:08 | 53.96704 | 10.73516 | 2261 ft | 166 kts | 274° |
| 2026-05-06 18:09 | 53.96714 | 10.71518 | 2128 ft | 172 kts | 273° |
| 2026-05-06 18:09 | 53.96626 | 10.69502 | 2103 ft | 170 kts | 258° |
| 2026-05-06 18:09 | 53.96054 | 10.67868 | 2285 ft | 158 kts | 221° |
| 2026-05-06 18:09 | 53.95108 | 10.67052 | 2443 ft | 149 kts | 188° |
| 2026-05-06 18:10 | 53.94097 | 10.66907 | 2595 ft | 144 kts | 171° |
| 2026-05-06 18:10 | 53.93090 | 10.67024 | 2666 ft | 148 kts | 172° |
| 2026-05-06 18:10 | 53.92025 | 10.67001 | 2703 ft | 153 kts | 177° |
| 2026-05-06 18:10 | 53.90971 | 10.66692 | 2764 ft | 157 kts | 194° |
| 2026-05-06 18:11 | 53.89983 | 10.65931 | 2875 ft | 155 kts | 205° |
| 2026-05-06 18:11 | 53.89056 | 10.64960 | 2933 ft | 158 kts | 216° |
| 2026-05-06 18:11 | 53.88288 | 10.63606 | 2977 ft | 160 kts | 232° |
| 2026-05-06 18:11 | 53.87683 | 10.62005 | 3004 ft | 163 kts | 238° |
| 2026-05-06 18:12 | 53.87104 | 10.60338 | 3033 ft | 163 kts | 240° |
| 2026-05-06 18:12 | 53.86591 | 10.58645 | 3106 ft | 161 kts | 245° |
| 2026-05-06 18:12 | 53.86136 | 10.56895 | 3126 ft | 164 kts | 248° |
| 2026-05-06 18:12 | 53.85697 | 10.55108 | 3171 ft | 164 kts | 249° |
| 2026-05-06 18:13 | 53.85305 | 10.53313 | 3256 ft | 161 kts | 251° |
| 2026-05-06 18:13 | 53.84954 | 10.51498 | 3241 ft | 164 kts | 253° |
| 2026-05-06 18:13 | 53.84598 | 10.49610 | 3143 ft | 170 kts | 254° |
| 2026-05-06 18:13 | 53.84315 | 10.47679 | 3143 ft | 168 kts | 261° |
| 2026-05-06 18:14 | 53.84126 | 10.45743 | 3167 ft | 165 kts | 264° |
| 2026-05-06 18:14 | 53.83952 | 10.43836 | 3227 ft | 163 kts | 263° |
| 2026-05-06 18:14 | 53.83783 | 10.41950 | 3279 ft | 162 kts | 264° |
| 2026-05-06 18:14 | 53.83600 | 10.40060 | 3305 ft | 163 kts | 262° |
| 2026-05-06 18:15 | 53.83383 | 10.38151 | 3257 ft | 168 kts | 262° |
| 2026-05-06 18:15 | 53.83189 | 10.36179 | 3083 ft | 171 kts | 264° |
| 2026-05-06 18:15 | 53.83044 | 10.34173 | 2824 ft | 172 kts | 267° |
| 2026-05-06 18:15 | 53.82915 | 10.32178 | 2617 ft | 170 kts | 266° |
| 2026-05-06 18:16 | 53.82782 | 10.30157 | 2295 ft | 173 kts | 266° |
| 2026-05-06 18:16 | 53.82654 | 10.28149 | 2075 ft | 169 kts | 268° |
| 2026-05-06 18:16 | 53.82578 | 10.26199 | 1952 ft | 162 kts | 270° |
| 2026-05-06 18:16 | 53.82497 | 10.24339 | 1925 ft | 157 kts | 268° |
| 2026-05-06 18:17 | 53.82397 | 10.22458 | 1788 ft | 159 kts | 268° |
| 2026-05-06 18:17 | 53.82266 | 10.20615 | 1707 ft | 157 kts | 265° |
| 2026-05-06 18:17 | 53.82102 | 10.18798 | 1646 ft | 154 kts | 264° |
| 2026-05-06 18:17 | 53.81951 | 10.17048 | 1615 ft | 151 kts | 265° |
| 2026-05-06 18:18 | 53.81814 | 10.15299 | 1560 ft | 149 kts | 266° |
| 2026-05-06 18:18 | 53.81698 | 10.13567 | 1471 ft | 148 kts | 267° |
| 2026-05-06 18:18 | 53.81592 | 10.11828 | 1491 ft | 145 kts | 268° |
| 2026-05-06 18:18 | 53.81510 | 10.10206 | 1523 ft | 135 kts | 268° |
| 2026-05-06 18:19 | 53.81424 | 10.08627 | 1556 ft | 132 kts | 270° |
| 2026-05-06 18:19 | 53.81333 | 10.07114 | 1581 ft | 130 kts | 268° |
| 2026-05-06 18:19 | 53.81558 | 10.05762 | 1674 ft | 112 kts | 322° |
| 2026-05-06 18:19 | 53.82189 | 10.05504 | 1746 ft | 90 kts | 33° |
| 2026-05-06 18:20 | 53.82336 | 10.06416 | 1727 ft | 101 kts | 113° |
| 2026-05-06 18:20 | 53.81618 | 10.06777 | 1742 ft | 125 kts | 190° |
| 2026-05-06 18:20 | 53.81102 | 10.05685 | 1854 ft | 124 kts | 270° |
| 2026-05-06 18:20 | 53.81470 | 10.04549 | 1858 ft | 106 kts | 344° |
| 2026-05-06 18:21 | 53.82084 | 10.04674 | 1927 ft | 87 kts | 48° |
| 2026-05-06 18:21 | 53.82132 | 10.05642 | 1930 ft | 99 kts | 116° |
| 2026-05-06 18:21 | 53.81415 | 10.06009 | 1885 ft | 127 kts | 184° |
| 2026-05-06 18:21 | 53.80815 | 10.05033 | 1905 ft | 127 kts | 269° |
| 2026-05-06 18:22 | 53.80697 | 10.03596 | 2016 ft | 121 kts | 260° |
| 2026-05-06 18:22 | 53.80280 | 10.02389 | 2103 ft | 120 kts | 221° |
| 2026-05-06 18:22 | 53.79554 | 10.01767 | 2114 ft | 118 kts | 180° |
| 2026-05-06 18:22 | 53.78725 | 10.01611 | 2106 ft | 124 kts | 181° |
| 2026-05-06 18:23 | 53.77846 | 10.01377 | 2058 ft | 128 kts | 182° |
| 2026-05-06 18:23 | 53.76978 | 10.01103 | 2061 ft | 127 kts | 182° |
| 2026-05-06 18:23 | 53.76119 | 10.00835 | 2097 ft | 124 kts | 183° |
| 2026-05-06 18:23 | 53.75538 | 10.00691 | 2077 ft | 125 kts | 178° |
| 2026-05-06 18:24 | 53.74678 | 10.00538 | 2131 ft | 123 kts | 179° |
| 2026-05-06 18:24 | 53.73834 | 10.00347 | 2169 ft | 122 kts | 180° |
| 2026-05-06 18:24 | 53.72965 | 10.00180 | 2094 ft | 128 kts | 176° |
| 2026-05-06 18:24 | 53.72052 | 10.00088 | 1937 ft | 136 kts | 175° |
| 2026-05-06 18:25 | 53.71089 | 10.00031 | 1769 ft | 138 kts | 173° |
| 2026-05-06 18:25 | 53.70143 | 10.00020 | 1627 ft | 137 kts | 172° |
| 2026-05-06 18:25 | 53.69169 | 10.00049 | 1468 ft | 138 kts | 171° |
| 2026-05-06 18:25 | 53.68226 | 10.00099 | 1366 ft | 133 kts | 171° |
| 2026-05-06 18:26 | 53.67323 | 10.00184 | 1311 ft | 125 kts | 168° |
| 2026-05-06 18:26 | 53.66490 | 10.00367 | 1289 ft | 119 kts | 163° |
| 2026-05-06 18:26 | 53.65685 | 10.00591 | 1294 ft | 114 kts | 162° |
| 2026-05-06 18:26 | 53.64905 | 10.00840 | 1235 ft | 115 kts | 162° |
| 2026-05-06 18:27 | 53.64120 | 10.01128 | 1172 ft | 112 kts | 158° |
| 2026-05-06 18:27 | 53.63297 | 10.01507 | 1033 ft | 114 kts | 157° |
| 2026-05-06 18:27 | 53.62527 | 10.01949 | 785 ft | 123 kts | 154° |
| 2026-05-06 18:27 | 53.61717 | 10.02248 | 568 ft | 122 kts | 178° |
| 2026-05-06 18:28 | 53.61160 | 10.01512 | 690 ft | 100 kts | 266° |
| 2026-05-06 18:28 | 53.61539 | 10.00814 | 653 ft | 90 kts | 9° |
| 2026-05-06 18:28 | 53.61895 | 10.01678 | 821 ft | 105 kts | 94° |
| 2026-05-06 18:28 | 53.61294 | 10.02115 | 1007 ft | 122 kts | 218° |
| 2026-05-06 18:29 | 53.61366 | 10.00920 | 972 ft | 118 kts | 316° |
| 2026-05-06 18:29 | 53.62052 | 10.00326 | 544 ft | 111 kts | 343° |
| 2026-05-06 18:29 | 53.62754 | 9.99788 | 193 ft | 102 kts | 339° |
| 2026-05-06 18:29 | 53.63354 | 9.99317 | 119 ft | 82 kts | 337° |
| 2026-05-06 18:30 | 53.63824 | 9.98913 | 145 ft | 75 kts | 338° |
| 2026-05-06 18:30 | 53.64265 | 9.98542 | 203 ft | 67 kts | 336° |
| 2026-05-06 18:30 | 53.64724 | 9.98126 | 226 ft | 66 kts | 339° |
| 2026-05-06 18:30 | 53.65095 | 9.97793 | 262 ft | 66 kts | 335° |
| 2026-05-06 18:31 | 53.65500 | 9.97405 | 352 ft | 74 kts | 330° |
| 2026-05-06 18:31 | 53.65575 | 9.96613 | 509 ft | 82 kts | 231° |
| 2026-05-06 18:31 | 53.65078 | 9.96065 | 616 ft | 89 kts | 171° |
| 2026-05-06 18:31 | 53.64329 | 9.96110 | 705 ft | 120 kts | 176° |
| 2026-05-06 18:32 | 53.63462 | 9.95970 | 794 ft | 126 kts | 192° |
| 2026-05-06 18:32 | 53.62711 | 9.95167 | 831 ft | 122 kts | 219° |
| 2026-05-06 18:32 | 53.62091 | 9.94257 | 784 ft | 122 kts | 220° |
| 2026-05-06 18:32 | 53.61647 | 9.93634 | 766 ft | 121 kts | 218° |
| 2026-05-06 18:33 | 53.60752 | 9.93287 | 829 ft | 82 kts | 128° |
| 2026-05-06 18:33 | 53.60707 | 9.94115 | 770 ft | 73 kts | 64° |
| 2026-05-06 18:33 | 53.61025 | 9.94705 | 546 ft | 68 kts | 46° |
| 2026-05-06 18:33 | 53.61310 | 9.95315 | 410 ft | 61 kts | 56° |
| 2026-05-06 18:34 | 53.61589 | 9.95883 | 304 ft | 66 kts | 48° |
| 2026-05-06 18:34 | 53.61893 | 9.96511 | 186 ft | 66 kts | 49° |
| 2026-05-06 18:34 | 53.62081 | 9.96885 | 101 ft | 60 kts | 48° |
| 2026-05-06 18:34 | 53.62395 | 9.97498 | 35 ft | 37 kts | 51° |
| 2026-05-06 18:35 | 53.62477 | 9.97746 | 35 ft | 18 kts | 105° |
| 2026-05-06 18:35 | 53.62429 | 9.97855 | 39 ft | 7 kts | 114° |
| 2026-05-06 18:35 | 53.62428 | 9.97914 | 41 ft | 6 kts | 80° |
| 2026-05-06 18:35 | 53.62448 | 9.98039 | 41 ft | 15 kts | 63° |
| 2026-05-06 18:36 | 53.62503 | 9.98174 | 41 ft | 12 kts | 50° |
| 2026-05-06 18:36 | 53.62551 | 9.98273 | 41 ft | 10 kts | 53° |
| 2026-05-06 18:36 | 53.62576 | 9.98327 | 41 ft | 9 kts | 50° |
| 2026-05-06 18:36 | 53.62638 | 9.98449 | 41 ft | 16 kts | 50° |
| 2026-05-06 18:37 | 53.62676 | 9.98524 | 41 ft | 6 kts | 49° |
| 2026-05-06 18:37 | 53.62714 | 9.98600 | 42 ft | 17 kts | 50° |
| 2026-05-06 18:37 | 53.62750 | 9.98685 | 41 ft | 8 kts | 89° |
| 2026-05-06 18:37 | 53.62714 | 9.98759 | 41 ft | 8 kts | 139° |
| 2026-05-06 18:38 | 53.62692 | 9.98827 | 41 ft | 8 kts | 60° |
| 2026-05-06 18:38 | 53.62704 | 9.98802 | 41 ft | 3 kts | 241° |
| 2026-05-06 18:38 | 53.62703 | 9.98799 | 41 ft | 0 kts | 241° |